Time;durP1;ratioP1;P1;durP2;ratioP2;P2;SDS_P1;SDS_P2;PMS_P1;PMS_P2;Temp;Humidity;BMP_temperature;BMP_pressure;BME280_temperature;BME280_humidity;BME280_pressure;Samples;Min_cycle;Max_cycle;Signal;HPM_P1;HPM_P2
2022/08/06 00:00:03;;;;;;;0.30;0.30;;;12.60;99.90;;;;;;4770181;30;20044;-85
2022/08/06 00:02:41;;;;;;;0.40;0.40;;;12.90;99.90;;;;;;4784375;29;20138;-85
2022/08/06 00:05:07;;;;;;;1.55;0.40;;;12.60;99.90;;;;;;4778809;29;20146;-85
2022/08/06 00:07:42;;;;;;;0.50;0.35;;;12.60;99.90;;;;;;4770283;30;20062;-86
2022/08/06 00:10:16;;;;;;;0.95;0.40;;;12.70;99.90;;;;;;4786544;29;20138;-85
2022/08/06 00:12:42;;;;;;;0.40;0.30;;;12.50;99.90;;;;;;4787596;29;20055;-84
2022/08/06 00:15:09;;;;;;;1.85;0.45;;;12.50;99.90;;;;;;4788592;29;20134;-84
2022/08/06 00:17:41;;;;;;;0.85;0.30;;;12.70;99.90;;;;;;4777456;30;20058;-85
2022/08/06 00:20:07;;;;;;;1.00;0.30;;;12.50;99.90;;;;;;4769882;30;20447;-85
2022/08/06 00:22:36;;;;;;;1.25;0.30;;;12.40;99.90;;;;;;4762305;30;20043;-85
2022/08/06 00:25:19;;;;;;;1.15;0.45;;;12.50;99.90;;;;;;4782173;29;20597;-85
2022/08/06 00:28:08;;;;;;;;;;;;;;;;;;;;;
2022/08/06 00:34:08;;;;;;;1.65;0.20;;;12.30;99.90;;;;;;4779575;29;20517;-85
2022/08/06 00:41:11;;;;;;;0.30;0.30;;;12.30;99.90;;;;;;4792772;29;20073;-85
2022/08/06 00:43:45;;;;;;;0.20;0.20;;;12.30;99.90;;;;;;4789670;29;20076;-85
2022/08/06 00:46:40;;;;;;;0.30;0.30;;;12.30;99.90;;;;;;4790088;29;20058;-85
2022/08/06 00:49:12;;;;;;;1.40;0.20;;;12.20;99.90;;;;;;4775577;29;20135;-86
2022/08/06 00:51:49;;;;;;;1.10;0.22;;;12.20;99.90;;;;;;4771799;30;20059;-85
2022/08/06 00:54:51;;;;;;;0.43;0.30;;;12.80;99.90;;;;;;4771937;30;20481;-85
2022/08/06 00:57:49;;;;;;;0.65;0.22;;;12.10;99.90;;;;;;4772257;29;20417;-85
2022/08/06 01:00:25;;;;;;;0.25;0.20;;;12.10;99.90;;;;;;4716318;30;20151;-87
2022/08/06 01:02:51;;;;;;;1.65;0.22;;;12.10;99.90;;;;;;4747146;30;20059;-86
2022/08/06 01:05:31;;;;;;;0.20;0.20;;;12.10;99.90;;;;;;4750444;30;20504;-86
2022/08/06 01:08:30;;;;;;;0.20;0.20;;;12.10;99.90;;;;;;4749980;30;20148;-86
2022/08/06 01:11:36;;;;;;;0.70;0.30;;;12.10;99.90;;;;;;4750609;30;20063;-86
2022/08/06 01:14:16;;;;;;;0.22;0.20;;;12.00;99.90;;;;;;4734976;30;20048;-86
2022/08/06 01:17:04;;;;;;;;;;;;;;;;;;;;;
2022/08/06 01:20:19;;;;;;;0.63;0.20;;;12.00;99.90;;;;;;4725402;30;20064;-86
2022/08/06 01:28:05;;;;;;;0.20;0.20;;;11.90;99.90;;;;;;4617115;31;20573;-85
2022/08/06 01:35:08;;;;;;;;;;;;;;;;;;;;;
2022/08/06 01:38:10;;;;;;;0.40;0.20;;;11.90;99.90;;;;;;4606624;31;20457;-85
2022/08/06 01:40:48;;;;;;;1.45;0.45;;;11.80;99.90;;;;;;4599973;31;20139;-85
2022/08/06 01:43:42;;;;;;;0.88;0.30;;;11.80;99.90;;;;;;4598909;31;20101;-85
2022/08/06 01:46:17;;;;;;;0.63;0.30;;;11.80;99.90;;;;;;4586772;31;20171;-85
2022/08/06 01:48:48;;;;;;;1.10;0.20;;;11.70;99.90;;;;;;4597376;31;20064;-85
2022/08/06 01:51:16;;;;;;;0.73;0.20;;;11.70;99.90;;;;;;4612342;30;20570;-85
2022/08/06 01:54:18;;;;;;;0.32;0.20;;;11.80;99.90;;;;;;4598204;31;20495;-85
2022/08/06 01:57:13;;;;;;;1.63;0.30;;;11.70;99.90;;;;;;4611983;30;20060;-85
2022/08/06 02:00:06;;;;;;;0.32;0.20;;;11.70;99.90;;;;;;4607948;30;20065;-86
2022/08/06 02:02:54;;;;;;;0.20;0.20;;;11.70;99.90;;;;;;4728855;29;20059;-85
2022/08/06 02:05:44;;;;;;;0.20;0.20;;;11.70;99.90;;;;;;4786024;29;20142;-85
2022/08/06 02:08:34;;;;;;;0.30;0.28;;;11.60;99.90;;;;;;4794790;29;20138;-85
2022/08/06 02:11:09;;;;;;;0.70;0.17;;;11.60;99.90;;;;;;4770872;30;20166;-85
2022/08/06 02:13:36;;;;;;;1.85;0.30;;;11.60;99.90;;;;;;4801355;29;20531;-85
2022/08/06 02:16:14;;;;;;;0.30;0.10;;;11.40;99.90;;;;;;4792652;29;20102;-85
2022/08/06 02:18:47;;;;;;;1.05;0.30;;;11.50;99.90;;;;;;4790895;29;20511;-85
2022/08/06 02:32:13;;;;;;;;;;;;;;;;;;;;;
2022/08/06 02:34:51;;;;;;;0.30;0.30;;;11.50;99.90;;;;;;4791107;29;20074;-85
2022/08/06 02:37:25;;;;;;;0.82;0.20;;;11.50;99.90;;;;;;4776710;30;20116;-85
2022/08/06 02:40:05;;;;;;;0.20;0.20;;;11.50;99.90;;;;;;4773073;30;20565;-86
2022/08/06 02:42:47;;;;;;;0.40;0.40;;;11.50;99.90;;;;;;4770769;30;20502;-85
2022/08/06 02:45:37;;;;;;;;;;;;;;;;;;;;;
2022/08/06 02:48:45;;;;;;;0.30;0.30;;;11.50;99.90;;;;;;4788276;29;20129;-86
2022/08/06 02:51:55;;;;;;;0.35;0.30;;;11.50;99.90;;;;;;4775086;29;20109;-86
2022/08/06 02:54:58;;;;;;;0.40;0.30;;;11.60;99.90;;;;;;4728472;30;20056;-86
2022/08/06 02:58:20;;;;;;;0.50;0.20;;;11.50;99.90;;;;;;4750351;24;20066;-87
2022/08/06 03:01:46;;;;;;;0.20;0.20;;;12.30;99.90;;;;;;4716683;30;20068;-86
2022/08/06 03:04:35;;;;;;;1.08;0.20;;;11.50;99.90;;;;;;4665587;30;20089;-86
2022/08/06 03:10:01;;;;;;;0.32;0.30;;;11.30;99.90;;;;;;4650758;30;20081;-85
2022/08/06 03:12:31;;;;;;;1.60;0.30;;;11.50;99.90;;;;;;4650422;30;20066;-85
2022/08/06 03:15:04;;;;;;;0.30;0.30;;;11.50;99.90;;;;;;4650720;30;20418;-85
2022/08/06 03:17:41;;;;;;;0.28;0.20;;;11.50;99.90;;;;;;4665006;30;20082;-86
2022/08/06 03:20:22;;;;;;;0.20;0.20;;;11.50;99.90;;;;;;4651365;30;20126;-86
2022/08/06 03:22:56;;;;;;;0.65;0.25;;;11.50;99.90;;;;;;4650398;30;20059;-87
2022/08/06 03:25:38;;;;;;;1.13;0.35;;;11.50;99.90;;;;;;4650598;30;20061;-85
2022/08/06 03:31:27;;;;;;;0.63;0.20;;;12.00;99.90;;;;;;4664171;30;20529;-85
2022/08/06 03:33:56;;;;;;;0.40;0.35;;;11.50;99.90;;;;;;4668036;30;20640;-86
2022/08/06 03:40:41;;;;;;;0.30;0.30;;;11.50;99.90;;;;;;4764926;30;20132;-86
2022/08/06 03:43:15;;;;;;;0.15;0.15;;;11.70;99.90;;;;;;4770312;30;20056;-87
2022/08/06 03:46:02;;;;;;;0.20;0.20;;;11.50;99.90;;;;;;4771527;30;20044;-86
2022/08/06 03:48:42;;;;;;;0.50;0.30;;;11.50;99.90;;;;;;4771320;30;20067;-86
2022/08/06 03:51:25;;;;;;;0.20;0.20;;;11.10;99.90;;;;;;4785770;29;20062;-86
2022/08/06 03:53:56;;;;;;;0.10;0.10;;;11.80;99.90;;;;;;4787631;29;20501;-86
2022/08/06 03:56:42;;;;;;;;;;;;;;;;;;;;;
2022/08/06 03:59:14;;;;;;;0.20;0.20;;;11.50;99.90;;;;;;4753109;30;20503;-86
2022/08/06 04:01:56;;;;;;;0.30;0.30;;;11.50;99.90;;;;;;4752679;30;20095;-86
2022/08/06 04:04:26;;;;;;;0.52;0.30;;;11.50;99.90;;;;;;4771167;30;20048;-85
2022/08/06 04:07:02;;;;;;;3.20;0.30;;;11.50;99.90;;;;;;4771095;30;20112;-85
2022/08/06 04:09:32;;;;;;;0.40;0.30;;;11.50;99.90;;;;;;4755474;30;20048;-86
2022/08/06 04:12:05;;;;;;;0.80;0.43;;;11.50;99.90;;;;;;4771899;30;20135;-86
2022/08/06 04:14:42;;;;;;;1.48;0.40;;;11.50;99.90;;;;;;4756065;30;20113;-86
2022/08/06 04:17:14;;;;;;;0.57;0.30;;;11.50;99.90;;;;;;4770904;30;20505;-86
2022/08/06 04:20:07;;;;;;;0.35;0.30;;;11.30;99.90;;;;;;4754876;30;20052;-86
2022/08/06 04:22:42;;;;;;;2.15;0.65;;;11.50;99.90;;;;;;4755431;30;20056;-86
2022/08/06 04:25:18;;;;;;;0.40;0.40;;;11.60;99.90;;;;;;4755281;30;20070;-85
2022/08/06 04:27:48;;;;;;;0.35;0.30;;;11.60;99.90;;;;;;4770425;30;20065;-85
2022/08/06 04:37:16;;;;;;;;;;;;;;;;;;;;;
2022/08/06 04:40:09;;;;;;;0.98;0.30;;;11.80;99.90;;;;;;4749997;30;20056;-85
2022/08/06 04:42:57;;;;;;;0.20;0.20;;;11.90;99.90;;;;;;4733926;30;20058;-85
2022/08/06 04:45:46;;;;;;;0.30;0.30;;;11.90;99.90;;;;;;4752296;30;20060;-87
2022/08/06 04:48:46;;;;;;;;;;;;;;;;;;;;;
2022/08/06 04:51:25;;;;;;;0.80;0.30;;;12.30;99.90;;;;;;4722629;30;20071;-86
2022/08/06 04:54:03;;;;;;;;;;;;;;;;;;;;;
2022/08/06 04:57:16;;;;;;;0.93;0.82;;;12.20;99.90;;;;;;4741425;30;20044;-85
2022/08/06 05:00:07;;;;;;;;;;;;;;;;;;;;;
2022/08/06 05:02:53;;;;;;;1.00;0.20;;;12.50;99.90;;;;;;4751643;30;20071;-86
2022/08/06 05:06:06;;;;;;;0.50;0.15;;;12.30;99.90;;;;;;4724297;30;20048;-85
2022/08/06 05:09:26;;;;;;;0.17;0.17;;;12.40;99.90;;;;;;4713556;30;20455;-85
2022/08/06 05:13:01;;;;;;;0.32;0.30;;;12.30;99.90;;;;;;4727942;30;20144;-86
2022/08/06 05:16:06;;;;;;;0.20;0.20;;;12.40;99.90;;;;;;4677823;30;20089;-86
2022/08/06 05:19:00;;;;;;;0.30;0.30;;;12.50;99.90;;;;;;4681413;30;20072;-86
2022/08/06 05:22:00;;;;;;;0.55;0.25;;;12.50;99.90;;;;;;4680038;30;20068;-86
2022/08/06 05:24:29;;;;;;;0.65;0.28;;;12.60;99.90;;;;;;4665934;30;20185;-85
2022/08/06 05:27:03;;;;;;;0.35;0.20;;;13.10;99.90;;;;;;4692926;30;20469;-86
2022/08/06 05:29:35;;;;;;;0.22;0.20;;;12.50;99.90;;;;;;4697886;30;20060;-86
2022/08/06 05:32:08;;;;;;;0.80;0.40;;;12.70;99.90;;;;;;4683513;30;20068;-86
2022/08/06 05:34:42;;;;;;;0.55;0.30;;;12.80;99.90;;;;;;4697338;30;20061;-85
2022/08/06 05:41:24;;;;;;;0.30;0.28;;;13.00;99.90;;;;;;4729640;30;20171;-85
2022/08/06 05:43:53;;;;;;;0.40;0.30;;;12.90;99.90;;;;;;4715126;30;20058;-85
2022/08/06 05:46:28;;;;;;;0.65;0.30;;;13.30;99.90;;;;;;4758442;30;20544;-86
2022/08/06 05:49:21;;;;;;;0.20;0.20;;;13.40;99.90;;;;;;4766479;30;20553;-86
2022/08/06 05:56:45;;;;;;;;;;;;;;;;;;;;;
2022/08/06 06:03:13;;;;;;;;;;;;;;;;;;;;;
2022/08/06 06:06:52;;;;;;;;;;;;;;;;;;;;;
2022/08/06 06:10:34;;;;;;;;;;;;;;;;;;;;;
2022/08/06 06:24:56;;;;;;;0.43;0.20;;;13.70;99.90;;;;;;4959799;23;20055;-86
2022/08/06 06:32:01;;;;;;;;;;;;;;;;;;;;;
2022/08/06 06:35:55;;;;;;;;;;;;;;;;;;;;;
2022/08/06 06:45:21;;;;;;;0.30;0.30;;;15.20;99.90;;;;;;4880396;24;20063;-86
2022/08/06 06:48:42;;;;;;;0.30;0.20;;;15.30;99.90;;;;;;4717187;30;20108;-94
2022/08/06 06:51:26;;;;;;;0.30;0.30;;;15.60;99.90;;;;;;4721487;30;20466;-91
2022/08/06 06:53:56;;;;;;;2.38;0.52;;;15.70;99.90;;;;;;4850446;24;20056;-92
2022/08/06 07:10:45;;;;;;;2.42;0.35;;;16.60;99.90;;;;;;4503644;27;20142;-88
2022/08/06 07:13:13;;;;;;;1.85;0.20;;;16.60;99.90;;;;;;4773714;29;20111;-90
2022/08/06 07:15:47;;;;;;;0.75;0.20;;;16.70;99.90;;;;;;4790228;29;20047;-88
2022/08/06 07:18:14;;;;;;;1.42;0.20;;;16.70;99.90;;;;;;4773225;30;20055;-92
2022/08/06 07:20:55;;;;;;;0.20;0.20;;;16.80;99.90;;;;;;4790069;30;20086;-90
2022/08/06 07:23:24;;;;;;;0.32;0.25;;;16.90;99.90;;;;;;4758814;30;20405;-90
2022/08/06 07:25:52;;;;;;;1.25;0.30;;;17.00;99.90;;;;;;4774973;30;20047;-91
2022/08/06 07:28:18;;;;;;;1.92;0.32;;;17.20;99.90;;;;;;4774857;30;20629;-92
2022/08/06 07:30:45;;;;;;;0.52;0.10;;;17.50;99.90;;;;;;4774966;30;20051;-91
2022/08/06 07:33:12;;;;;;;0.82;0.30;;;17.70;99.90;;;;;;4774082;30;20055;-93
2022/08/06 07:35:41;;;;;;;1.58;0.20;;;17.90;99.90;;;;;;4774274;30;20063;-93
2022/08/06 07:38:22;;;;;;;0.85;0.20;;;18.10;99.90;;;;;;4773889;29;20047;-86
2022/08/06 07:41:01;;;;;;;0.20;0.10;;;18.30;99.90;;;;;;4790392;29;20062;-88
2022/08/06 07:43:30;;;;;;;0.50;0.10;;;18.60;99.90;;;;;;4774030;30;20058;-90
2022/08/06 07:45:59;;;;;;;2.35;0.30;;;18.80;99.90;;;;;;4773687;30;20059;-90
2022/08/06 07:48:35;;;;;;;0.43;0.10;;;19.10;99.90;;;;;;4790584;29;20409;-92
2022/08/06 07:51:06;;;;;;;0.30;0.03;;;19.20;99.90;;;;;;4774659;29;20156;-89
2022/08/06 07:53:38;;;;;;;1.30;0.10;;;19.30;99.90;;;;;;4790904;29;20078;-88
2022/08/06 07:56:09;;;;;;;2.78;0.20;;;19.50;99.90;;;;;;4774450;30;20055;-90
2022/08/06 07:58:37;;;;;;;0.30;0.20;;;19.70;99.90;;;;;;4791061;29;20405;-92
2022/08/06 08:01:05;;;;;;;0.20;0.10;;;19.70;99.90;;;;;;4790091;29;20079;-92
2022/08/06 08:06:17;;;;;;;2.20;0.10;;;19.90;99.90;;;;;;4789519;29;20185;-90
2022/08/06 08:09:03;;;;;;;0.55;0.10;;;20.00;99.90;;;;;;4790098;29;20078;-93
2022/08/06 08:11:31;;;;;;;1.20;0.20;;;20.00;99.90;;;;;;4789580;29;20047;-90
2022/08/06 08:14:02;;;;;;;1.15;0.20;;;19.90;99.90;;;;;;4789727;29;20481;-90
2022/08/06 08:16:28;;;;;;;0.63;0.10;;;19.80;99.90;;;;;;4802288;29;20043;-85
2022/08/06 08:18:54;;;;;;;1.08;0.20;;;19.70;99.90;;;;;;4806129;30;20081;-89
2022/08/06 08:21:21;;;;;;;0.95;0.20;;;19.70;99.90;;;;;;4792483;30;20050;-88
2022/08/06 08:27:28;;;;;;;1.17;0.20;;;19.80;99.90;;;;;;4807092;29;20156;-89
2022/08/06 08:29:54;;;;;;;0.20;0.10;;;19.80;99.90;;;;;;4791880;29;20087;-92
2022/08/06 08:32:21;;;;;;;0.25;0.20;;;19.70;99.90;;;;;;4790324;29;20096;-89
2022/08/06 08:34:46;;;;;;;1.30;0.30;;;19.60;99.90;;;;;;4789502;30;20422;-87
2022/08/06 08:37:12;;;;;;;1.27;0.20;;;19.70;99.90;;;;;;4789630;29;20081;-89
2022/08/06 08:39:37;;;;;;;0.52;0.20;;;19.80;99.90;;;;;;4773423;30;20130;-91
2022/08/06 08:42:13;;;;;;;2.45;0.35;;;19.70;99.90;;;;;;4773135;30;20059;-90
2022/08/06 08:44:41;;;;;;;1.27;0.30;;;19.70;99.90;;;;;;4773663;30;20055;-89
2022/08/06 08:47:09;;;;;;;1.50;0.32;;;19.80;99.90;;;;;;4774847;30;20429;-87
2022/08/06 08:49:44;;;;;;;1.48;0.50;;;19.40;99.90;;;;;;4756914;30;20055;-90
2022/08/06 08:52:19;;;;;;;0.40;0.20;;;19.40;99.90;;;;;;4764565;30;20043;-91
2022/08/06 08:54:49;;;;;;;0.32;0.30;;;19.10;99.90;;;;;;4789274;30;20047;-92
2022/08/06 08:57:16;;;;;;;1.75;0.28;;;19.00;99.90;;;;;;4773411;30;20060;-91
2022/08/06 08:59:42;;;;;;;0.30;0.30;;;19.00;99.90;;;;;;4772071;30;20094;-92
2022/08/06 09:02:12;;;;;;;1.98;0.38;;;19.20;99.90;;;;;;4773303;29;20062;-90
2022/08/06 09:04:38;;;;;;;0.68;0.35;;;19.50;99.90;;;;;;4773156;30;20188;-89
2022/08/06 09:07:05;;;;;;;0.77;0.30;;;19.70;99.90;;;;;;4788558;30;20055;-92
2022/08/06 09:09:34;;;;;;;0.63;0.22;;;20.00;99.90;;;;;;4788445;29;20116;-95
2022/08/06 09:12:00;;;;;;;0.22;0.20;;;20.00;99.90;;;;;;4788726;30;20078;-94
2022/08/06 09:14:26;;;;;;;1.52;0.40;;;20.20;99.90;;;;;;4788373;30;20051;-93
2022/08/06 09:32:00;;;;;;;0.43;0.30;;;21.00;98.70;;;;;;4776086;27;20021;-87
2022/08/06 09:35:00;;;;;;;3.70;0.50;;;21.10;99.60;;;;;;4823577;29;20050;-87
2022/08/06 11:41:47;;;;;;;1.90;0.80;;;23.40;88.50;;;;;;5601902;24;20082;-85
2022/08/06 11:44:30;;;;;;;1.67;1.00;;;23.60;88.60;;;;;;4792936;29;20393;-85
2022/08/06 16:52:59;;;;;;;0.77;0.50;;;22.10;83.70;;;;;;5025240;24;20063;-86
2022/08/06 17:05:48;;;;;;;1.13;0.70;;;21.40;86.30;;;;;;4843695;24;20051;-87
2022/08/06 17:08:37;;;;;;;1.02;0.57;;;21.20;87.30;;;;;;4803245;29;20054;-87
2022/08/06 17:11:43;;;;;;;1.08;0.60;;;21.00;86.30;;;;;;4790086;29;20055;-86
2022/08/06 17:14:35;;;;;;;1.33;0.65;;;21.00;88.00;;;;;;4783140;29;20108;-86
2022/08/06 17:26:58;;;;;;;1.75;0.80;;;20.50;87.30;;;;;;4828097;23;20058;-85
2022/08/06 17:29:33;;;;;;;1.17;0.60;;;20.40;88.20;;;;;;4824102;29;20479;-86
2022/08/06 17:31:59;;;;;;;2.65;0.60;;;20.30;88.80;;;;;;4808795;24;20059;-85
2022/08/06 17:34:31;;;;;;;2.30;0.70;;;20.40;88.10;;;;;;4994366;24;20462;-85
2022/08/06 17:58:37;;;;;;;1.35;0.82;;;19.80;90.00;;;;;;4857034;23;20052;-87
2022/08/06 18:01:16;;;;;;;1.60;0.82;;;19.80;89.80;;;;;;4749586;30;20055;-84
2022/08/06 18:13:39;;;;;;;0.98;0.65;;;19.50;91.60;;;;;;4735169;30;20483;-86
2022/08/06 18:36:50;;;;;;;;;;;;;;;;;;;;;
2022/08/06 18:40:50;;;;;;;;;;;;;;;;;;;;;
2022/08/06 18:43:41;;;;;;;2.17;0.80;;;18.90;93.00;;;;;;4785066;29;20051;-85
2022/08/06 18:50:12;;;;;;;;;;;;;;;;;;;;;
2022/08/06 18:53:32;;;;;;;1.20;0.70;;;18.50;93.70;;;;;;4770944;29;20054;-87
2022/08/06 18:59:17;;;;;;;1.45;0.60;;;18.40;93.60;;;;;;4795145;24;20085;-85
2022/08/06 19:01:43;;;;;;;1.65;0.70;;;18.30;94.00;;;;;;4808667;29;20063;-85
2022/08/06 19:04:09;;;;;;;2.28;1.00;;;18.30;94.80;;;;;;4808553;29;20054;-85
2022/08/06 19:06:38;;;;;;;2.08;0.77;;;18.20;94.60;;;;;;4792083;29;20047;-85
2022/08/06 19:09:03;;;;;;;1.70;0.90;;;18.10;95.10;;;;;;4788707;29;20095;-85
2022/08/06 19:11:29;;;;;;;1.38;0.80;;;18.10;95.10;;;;;;4807394;29;20044;-86
2022/08/06 19:14:38;;;;;;;0.98;0.60;;;17.90;95.90;;;;;;4787552;30;20058;-85
2022/08/06 19:17:08;;;;;;;1.38;0.70;;;18.00;96.50;;;;;;4772203;30;20152;-86
2022/08/06 19:19:42;;;;;;;2.20;0.80;;;17.70;96.40;;;;;;4773143;30;20051;-86
2022/08/06 19:22:35;;;;;;;2.05;0.88;;;17.60;96.90;;;;;;4773868;30;20055;-90
2022/08/06 19:25:16;;;;;;;1.17;0.70;;;17.90;97.50;;;;;;4870603;24;20116;-86
2022/08/06 19:38:57;;;;;;;2.83;0.77;;;17.10;99.60;;;;;;501864;27;20327;-86
2022/08/06 21:00:32;;;;;;;3.25;1.27;;;14.50;99.90;;;;;;4750026;30;20062;-86
2022/08/06 21:08:42;;;;;;;2.88;1.65;;;14.50;99.90;;;;;;4844148;24;20070;-88
2022/08/06 21:15:10;;;;;;;2.47;1.50;;;14.40;99.90;;;;;;4751088;29;20074;-88
2022/08/06 21:18:23;;;;;;;2.08;1.40;;;14.50;99.90;;;;;;4773266;24;20250;-87
2022/08/06 21:21:31;;;;;;;2.58;1.60;;;14.30;99.90;;;;;;4786873;29;20051;-88
2022/08/06 21:24:31;;;;;;;3.95;1.45;;;14.40;99.90;;;;;;4709577;30;20372;-87
2022/08/06 21:29:31;;;;;;;1.98;1.15;;;14.30;99.90;;;;;;4810154;24;20089;-86
2022/08/06 21:37:12;;;;;;;2.58;1.42;;;14.10;99.90;;;;;;4879509;23;20512;-86
2022/08/06 21:39:47;;;;;;;2.25;1.40;;;14.00;99.90;;;;;;4787174;29;20093;-86
2022/08/06 21:42:16;;;;;;;3.30;1.80;;;13.90;99.90;;;;;;4771837;30;20134;-86
2022/08/06 21:45:35;;;;;;;2.33;1.30;;;13.80;99.90;;;;;;4775811;29;20074;-86
2022/08/06 21:48:58;;;;;;;2.22;1.10;;;13.80;99.90;;;;;;4732899;30;20074;-85
2022/08/06 21:51:55;;;;;;;2.00;1.20;;;14.20;99.90;;;;;;4769966;30;20055;-86
2022/08/06 21:58:56;;;;;;;;;;;;;;;;;;;;;
2022/08/06 22:04:49;;;;;;;;;;;;;;;;;;;;;
2022/08/06 22:08:23;;;;;;;2.60;1.60;;;13.40;99.90;;;;;;4812114;29;20050;-86
2022/08/06 22:15:30;;;;;;;1.95;1.17;;;13.30;99.90;;;;;;4806854;29;20041;-86
2022/08/06 22:18:42;;;;;;;;;;;;;;;;;;;;;
2022/08/06 22:21:27;;;;;;;;;;;;;;;;;;;;;
2022/08/06 22:24:29;;;;;;;;;;;;;;;;;;;;;
2022/08/06 22:27:15;;;;;;;1.80;1.42;;;13.20;99.90;;;;;;4662481;30;20619;-87
2022/08/06 22:32:58;;;;;;;2.97;1.80;;;13.00;99.90;;;;;;4682138;30;20108;-87
2022/08/06 22:35:35;;;;;;;4.05;1.60;;;13.00;99.90;;;;;;4667172;30;20068;-87
2022/08/06 22:38:15;;;;;;;2.97;1.75;;;13.00;99.90;;;;;;4641487;30;20065;-86
2022/08/06 22:44:36;;;;;;;3.00;1.50;;;13.80;99.90;;;;;;4683336;30;20124;-87
2022/08/06 22:47:16;;;;;;;2.47;1.50;;;12.80;99.90;;;;;;4658260;30;20054;-85
2022/08/06 22:50:02;;;;;;;1.92;0.90;;;12.90;99.90;;;;;;4665523;30;20107;-86
2022/08/06 22:53:12;;;;;;;2.22;1.40;;;13.30;99.90;;;;;;4652501;30;20165;-85
2022/08/06 22:59:41;;;;;;;2.00;1.05;;;12.80;99.90;;;;;;4790197;29;20512;-86
2022/08/06 23:02:07;;;;;;;1.95;1.30;;;12.80;99.90;;;;;;4775837;29;20058;-87
2022/08/06 23:04:59;;;;;;;3.28;1.52;;;12.80;99.90;;;;;;4787877;29;20432;-86
2022/08/06 23:14:21;;;;;;;2.33;1.20;;;12.60;99.90;;;;;;2765245;23;20493;-86
2022/08/06 23:21:27;;;;;;;2.53;1.77;;;12.70;99.90;;;;;;4751061;30;20483;-87
2022/08/06 23:24:28;;;;;;;3.78;1.67;;;12.60;99.90;;;;;;4749005;30;20147;-86
2022/08/06 23:37:52;;;;;;;3.60;2.10;;;12.40;99.90;;;;;;4751833;30;20630;-86
2022/08/06 23:44:59;;;;;;;3.65;2.15;;;12.40;99.90;;;;;;4733100;30;20519;-86
2022/08/06 23:48:25;;;;;;;5.38;2.83;;;12.30;99.90;;;;;;4719197;30;20106;-86
2022/08/06 23:51:17;;;;;;;;;;;;;;;;;;;;;
2022/08/06 23:57:13;;;;;;;3.78;2.17;;;12.30;99.90;;;;;;4687628;30;20417;-86
